sensor_id;sensor_type;location;lat;lon;timestamp;P1;durP1;ratioP1;P2;durP2;ratioP2
48897;SDS011;34713;50.038;20.000;2023-08-12T00:02:15;10.60;;;5.10;;
48897;SDS011;34713;50.038;20.000;2023-08-12T00:04:42;9.90;;;5.00;;
48897;SDS011;34713;50.038;20.000;2023-08-12T00:07:08;8.90;;;5.20;;
48897;SDS011;34713;50.038;20.000;2023-08-12T00:09:35;10.70;;;4.80;;
48897;SDS011;34713;50.038;20.000;2023-08-12T00:12:02;10.10;;;5.10;;
48897;SDS011;34713;50.038;20.000;2023-08-12T00:14:30;11.30;;;5.40;;
48897;SDS011;34713;50.038;20.000;2023-08-12T00:16:59;12.30;;;5.40;;
48897;SDS011;34713;50.038;20.000;2023-08-12T00:19:26;10.20;;;5.40;;
48897;SDS011;34713;50.038;20.000;2023-08-12T00:21:53;9.30;;;4.70;;
48897;SDS011;34713;50.038;20.000;2023-08-12T00:24:20;7.40;;;5.00;;
48897;SDS011;34713;50.038;20.000;2023-08-12T00:26:46;8.30;;;4.90;;
48897;SDS011;34713;50.038;20.000;2023-08-12T00:29:13;8.10;;;4.90;;
48897;SDS011;34713;50.038;20.000;2023-08-12T00:31:39;11.20;;;5.50;;
48897;SDS011;34713;50.038;20.000;2023-08-12T00:34:06;9.70;;;5.20;;
48897;SDS011;34713;50.038;20.000;2023-08-12T00:36:33;8.80;;;5.70;;
48897;SDS011;34713;50.038;20.000;2023-08-12T00:39:00;9.40;;;5.40;;
48897;SDS011;34713;50.038;20.000;2023-08-12T00:41:26;9.70;;;5.20;;
48897;SDS011;34713;50.038;20.000;2023-08-12T00:43:53;12.40;;;6.10;;
48897;SDS011;34713;50.038;20.000;2023-08-12T00:46:20;10.70;;;4.80;;
48897;SDS011;34713;50.038;20.000;2023-08-12T00:48:47;8.10;;;4.90;;
48897;SDS011;34713;50.038;20.000;2023-08-12T00:51:15;8.70;;;4.90;;
48897;SDS011;34713;50.038;20.000;2023-08-12T00:53:42;9.00;;;4.90;;
48897;SDS011;34713;50.038;20.000;2023-08-12T00:56:09;9.80;;;5.30;;
48897;SDS011;34713;50.038;20.000;2023-08-12T00:58:39;10.90;;;5.50;;
48897;SDS011;34713;50.038;20.000;2023-08-12T01:01:11;8.40;;;5.00;;
48897;SDS011;34713;50.038;20.000;2023-08-12T01:03:38;11.00;;;5.30;;
48897;SDS011;34713;50.038;20.000;2023-08-12T01:06:06;13.60;;;5.30;;
48897;SDS011;34713;50.038;20.000;2023-08-12T01:08:33;13.50;;;5.50;;
48897;SDS011;34713;50.038;20.000;2023-08-12T01:11:49;8.80;;;5.40;;
48897;SDS011;34713;50.038;20.000;2023-08-12T01:14:12;12.40;;;5.90;;
48897;SDS011;34713;50.038;20.000;2023-08-12T01:16:43;11.00;;;5.60;;
48897;SDS011;34713;50.038;20.000;2023-08-12T01:19:16;10.20;;;5.60;;
48897;SDS011;34713;50.038;20.000;2023-08-12T01:21:50;9.60;;;5.40;;
48897;SDS011;34713;50.038;20.000;2023-08-12T01:24:21;9.20;;;4.80;;
48897;SDS011;34713;50.038;20.000;2023-08-12T01:26:48;8.40;;;5.30;;
48897;SDS011;34713;50.038;20.000;2023-08-12T01:29:24;12.40;;;5.30;;
48897;SDS011;34713;50.038;20.000;2023-08-12T01:31:58;11.30;;;5.50;;
48897;SDS011;34713;50.038;20.000;2023-08-12T01:34:34;10.00;;;5.50;;
48897;SDS011;34713;50.038;20.000;2023-08-12T01:37:14;8.30;;;5.00;;
48897;SDS011;34713;50.038;20.000;2023-08-12T01:39:45;11.50;;;5.70;;
48897;SDS011;34713;50.038;20.000;2023-08-12T01:42:15;6.90;;;4.80;;
48897;SDS011;34713;50.038;20.000;2023-08-12T01:44:43;9.70;;;4.80;;
48897;SDS011;34713;50.038;20.000;2023-08-12T01:47:10;9.90;;;5.50;;
48897;SDS011;34713;50.038;20.000;2023-08-12T01:49:37;8.50;;;5.20;;
48897;SDS011;34713;50.038;20.000;2023-08-12T01:52:03;11.40;;;5.30;;
48897;SDS011;34713;50.038;20.000;2023-08-12T01:54:30;10.90;;;5.10;;
48897;SDS011;34713;50.038;20.000;2023-08-12T01:57:01;9.30;;;5.40;;
48897;SDS011;34713;50.038;20.000;2023-08-12T01:59:29;10.80;;;5.60;;
48897;SDS011;34713;50.038;20.000;2023-08-12T02:01:55;7.80;;;4.90;;
48897;SDS011;34713;50.038;20.000;2023-08-12T02:04:22;9.80;;;5.50;;
48897;SDS011;34713;50.038;20.000;2023-08-12T02:06:49;7.30;;;5.20;;
48897;SDS011;34713;50.038;20.000;2023-08-12T02:09:24;8.70;;;5.40;;
48897;SDS011;34713;50.038;20.000;2023-08-12T02:11:51;12.40;;;5.90;;
48897;SDS011;34713;50.038;20.000;2023-08-12T02:14:18;12.00;;;5.70;;
48897;SDS011;34713;50.038;20.000;2023-08-12T02:16:48;10.90;;;5.30;;
48897;SDS011;34713;50.038;20.000;2023-08-12T02:19:17;10.80;;;6.00;;
48897;SDS011;34713;50.038;20.000;2023-08-12T02:21:49;10.30;;;6.40;;
48897;SDS011;34713;50.038;20.000;2023-08-12T02:24:28;10.10;;;5.50;;
48897;SDS011;34713;50.038;20.000;2023-08-12T02:27:09;8.20;;;5.80;;
48897;SDS011;34713;50.038;20.000;2023-08-12T02:29:36;12.40;;;6.40;;
48897;SDS011;34713;50.038;20.000;2023-08-12T02:32:03;7.20;;;5.40;;
48897;SDS011;34713;50.038;20.000;2023-08-12T02:34:31;10.40;;;5.50;;
48897;SDS011;34713;50.038;20.000;2023-08-12T02:36:58;10.90;;;5.70;;
48897;SDS011;34713;50.038;20.000;2023-08-12T02:39:24;9.60;;;5.90;;
48897;SDS011;34713;50.038;20.000;2023-08-12T02:41:51;11.30;;;5.60;;
48897;SDS011;34713;50.038;20.000;2023-08-12T02:44:18;8.00;;;5.60;;
48897;SDS011;34713;50.038;20.000;2023-08-12T02:46:45;10.10;;;6.00;;
48897;SDS011;34713;50.038;20.000;2023-08-12T02:49:11;13.40;;;5.90;;
48897;SDS011;34713;50.038;20.000;2023-08-12T02:51:38;10.90;;;6.60;;
48897;SDS011;34713;50.038;20.000;2023-08-12T02:54:05;8.00;;;6.00;;
48897;SDS011;34713;50.038;20.000;2023-08-12T02:56:31;8.40;;;5.80;;
48897;SDS011;34713;50.038;20.000;2023-08-12T02:58:58;10.20;;;5.80;;
48897;SDS011;34713;50.038;20.000;2023-08-12T03:01:25;12.00;;;6.10;;
48897;SDS011;34713;50.038;20.000;2023-08-12T03:03:52;8.90;;;5.10;;
48897;SDS011;34713;50.038;20.000;2023-08-12T03:06:18;12.30;;;5.60;;
48897;SDS011;34713;50.038;20.000;2023-08-12T03:08:45;10.00;;;5.70;;
48897;SDS011;34713;50.038;20.000;2023-08-12T03:11:12;9.50;;;5.60;;
48897;SDS011;34713;50.038;20.000;2023-08-12T03:13:43;12.10;;;6.10;;
48897;SDS011;34713;50.038;20.000;2023-08-12T03:16:12;13.40;;;5.90;;
48897;SDS011;34713;50.038;20.000;2023-08-12T03:18:40;9.30;;;5.60;;
48897;SDS011;34713;50.038;20.000;2023-08-12T03:21:08;8.40;;;5.80;;
48897;SDS011;34713;50.038;20.000;2023-08-12T03:23:35;7.60;;;5.00;;
48897;SDS011;34713;50.038;20.000;2023-08-12T03:26:03;8.80;;;5.80;;
48897;SDS011;34713;50.038;20.000;2023-08-12T03:28:30;8.90;;;5.70;;
48897;SDS011;34713;50.038;20.000;2023-08-12T03:30:57;11.80;;;5.80;;
48897;SDS011;34713;50.038;20.000;2023-08-12T03:33:24;10.90;;;6.40;;
48897;SDS011;34713;50.038;20.000;2023-08-12T03:35:51;12.00;;;5.60;;
48897;SDS011;34713;50.038;20.000;2023-08-12T03:38:18;10.40;;;6.70;;
48897;SDS011;34713;50.038;20.000;2023-08-12T03:40:44;14.00;;;7.30;;
48897;SDS011;34713;50.038;20.000;2023-08-12T03:43:11;8.40;;;6.30;;
48897;SDS011;34713;50.038;20.000;2023-08-12T03:45:44;9.10;;;5.20;;
48897;SDS011;34713;50.038;20.000;2023-08-12T03:48:17;12.00;;;5.50;;
48897;SDS011;34713;50.038;20.000;2023-08-12T03:50:44;9.60;;;5.00;;
48897;SDS011;34713;50.038;20.000;2023-08-12T03:53:13;6.50;;;5.00;;
48897;SDS011;34713;50.038;20.000;2023-08-12T03:55:42;7.20;;;5.30;;
48897;SDS011;34713;50.038;20.000;2023-08-12T03:58:09;9.60;;;5.40;;
48897;SDS011;34713;50.038;20.000;2023-08-12T04:00:40;7.90;;;4.70;;
48897;SDS011;34713;50.038;20.000;2023-08-12T04:03:08;8.20;;;5.20;;
48897;SDS011;34713;50.038;20.000;2023-08-12T04:05:55;8.10;;;5.00;;
48897;SDS011;34713;50.038;20.000;2023-08-12T04:08:22;12.80;;;5.20;;
48897;SDS011;34713;50.038;20.000;2023-08-12T04:10:50;9.60;;;5.20;;
48897;SDS011;34713;50.038;20.000;2023-08-12T04:13:17;8.00;;;5.60;;
48897;SDS011;34713;50.038;20.000;2023-08-12T04:15:47;8.80;;;5.50;;
48897;SDS011;34713;50.038;20.000;2023-08-12T04:18:15;7.60;;;4.30;;
48897;SDS011;34713;50.038;20.000;2023-08-12T04:20:42;7.20;;;5.00;;
48897;SDS011;34713;50.038;20.000;2023-08-12T04:23:08;7.00;;;4.70;;
48897;SDS011;34713;50.038;20.000;2023-08-12T04:25:35;6.90;;;4.70;;
48897;SDS011;34713;50.038;20.000;2023-08-12T04:28:02;7.00;;;4.90;;
48897;SDS011;34713;50.038;20.000;2023-08-12T04:30:31;6.90;;;4.30;;
48897;SDS011;34713;50.038;20.000;2023-08-12T04:33:01;9.40;;;4.40;;
48897;SDS011;34713;50.038;20.000;2023-08-12T04:35:30;8.80;;;4.60;;
48897;SDS011;34713;50.038;20.000;2023-08-12T04:37:58;9.80;;;4.50;;
48897;SDS011;34713;50.038;20.000;2023-08-12T04:40:27;8.10;;;4.70;;
48897;SDS011;34713;50.038;20.000;2023-08-12T04:42:53;7.40;;;4.30;;
48897;SDS011;34713;50.038;20.000;2023-08-12T04:45:20;6.30;;;4.00;;
48897;SDS011;34713;50.038;20.000;2023-08-12T04:47:47;8.40;;;4.60;;
48897;SDS011;34713;50.038;20.000;2023-08-12T04:50:13;9.10;;;4.00;;
48897;SDS011;34713;50.038;20.000;2023-08-12T04:52:40;6.50;;;4.10;;
48897;SDS011;34713;50.038;20.000;2023-08-12T04:55:07;5.90;;;4.40;;
48897;SDS011;34713;50.038;20.000;2023-08-12T04:57:34;7.10;;;4.00;;
48897;SDS011;34713;50.038;20.000;2023-08-12T05:00:01;7.20;;;4.20;;
48897;SDS011;34713;50.038;20.000;2023-08-12T05:02:28;7.70;;;4.60;;
48897;SDS011;34713;50.038;20.000;2023-08-12T05:04:55;8.10;;;4.70;;
48897;SDS011;34713;50.038;20.000;2023-08-12T05:07:21;6.50;;;4.10;;
48897;SDS011;34713;50.038;20.000;2023-08-12T05:09:48;8.60;;;4.20;;
48897;SDS011;34713;50.038;20.000;2023-08-12T05:12:15;5.40;;;4.10;;
48897;SDS011;34713;50.038;20.000;2023-08-12T05:14:42;7.80;;;3.50;;
48897;SDS011;34713;50.038;20.000;2023-08-12T05:17:08;5.70;;;3.20;;
48897;SDS011;34713;50.038;20.000;2023-08-12T05:19:35;5.10;;;3.60;;
48897;SDS011;34713;50.038;20.000;2023-08-12T05:22:02;4.90;;;3.00;;
48897;SDS011;34713;50.038;20.000;2023-08-12T05:24:29;6.90;;;3.30;;
48897;SDS011;34713;50.038;20.000;2023-08-12T05:26:56;5.30;;;2.90;;
48897;SDS011;34713;50.038;20.000;2023-08-12T05:29:23;4.50;;;3.00;;
48897;SDS011;34713;50.038;20.000;2023-08-12T05:31:50;8.40;;;3.90;;
48897;SDS011;34713;50.038;20.000;2023-08-12T05:34:16;3.80;;;3.10;;
48897;SDS011;34713;50.038;20.000;2023-08-12T05:36:43;4.50;;;2.50;;
48897;SDS011;34713;50.038;20.000;2023-08-12T05:39:10;3.90;;;2.80;;
48897;SDS011;34713;50.038;20.000;2023-08-12T05:41:37;3.50;;;3.00;;
48897;SDS011;34713;50.038;20.000;2023-08-12T05:44:04;4.10;;;2.60;;
48897;SDS011;34713;50.038;20.000;2023-08-12T05:46:31;4.60;;;2.70;;
48897;SDS011;34713;50.038;20.000;2023-08-12T05:48:58;6.40;;;2.70;;
48897;SDS011;34713;50.038;20.000;2023-08-12T05:51:25;7.00;;;2.70;;
48897;SDS011;34713;50.038;20.000;2023-08-12T05:53:52;3.70;;;2.30;;
48897;SDS011;34713;50.038;20.000;2023-08-12T05:56:19;4.10;;;2.60;;
48897;SDS011;34713;50.038;20.000;2023-08-12T05:58:45;6.10;;;2.40;;
48897;SDS011;34713;50.038;20.000;2023-08-12T06:01:12;5.90;;;2.40;;
48897;SDS011;34713;50.038;20.000;2023-08-12T06:03:39;4.80;;;2.50;;
48897;SDS011;34713;50.038;20.000;2023-08-12T06:06:05;5.90;;;2.40;;
48897;SDS011;34713;50.038;20.000;2023-08-12T06:08:35;4.70;;;2.90;;
48897;SDS011;34713;50.038;20.000;2023-08-12T06:11:02;3.90;;;2.20;;
48897;SDS011;34713;50.038;20.000;2023-08-12T06:13:28;5.50;;;2.50;;
48897;SDS011;34713;50.038;20.000;2023-08-12T06:15:58;3.60;;;1.90;;
48897;SDS011;34713;50.038;20.000;2023-08-12T06:18:26;3.70;;;2.00;;
48897;SDS011;34713;50.038;20.000;2023-08-12T06:23:24;4.90;;;2.10;;
48897;SDS011;34713;50.038;20.000;2023-08-12T06:25:51;3.30;;;1.90;;
48897;SDS011;34713;50.038;20.000;2023-08-12T06:28:17;6.40;;;2.20;;
48897;SDS011;34713;50.038;20.000;2023-08-12T06:30:44;5.10;;;2.00;;
48897;SDS011;34713;50.038;20.000;2023-08-12T06:33:18;3.00;;;2.00;;
48897;SDS011;34713;50.038;20.000;2023-08-12T06:35:44;2.90;;;2.10;;
48897;SDS011;34713;50.038;20.000;2023-08-12T06:38:11;4.20;;;1.90;;
48897;SDS011;34713;50.038;20.000;2023-08-12T06:40:39;3.40;;;2.30;;
48897;SDS011;34713;50.038;20.000;2023-08-12T06:43:06;3.80;;;2.00;;
48897;SDS011;34713;50.038;20.000;2023-08-12T06:45:45;3.80;;;2.20;;
48897;SDS011;34713;50.038;20.000;2023-08-12T06:48:12;3.60;;;1.70;;
48897;SDS011;34713;50.038;20.000;2023-08-12T06:50:39;3.30;;;2.00;;
48897;SDS011;34713;50.038;20.000;2023-08-12T06:53:05;3.30;;;2.00;;
48897;SDS011;34713;50.038;20.000;2023-08-12T06:55:32;5.50;;;2.00;;
48897;SDS011;34713;50.038;20.000;2023-08-12T06:57:59;3.20;;;2.00;;
48897;SDS011;34713;50.038;20.000;2023-08-12T07:00:27;2.90;;;1.80;;
48897;SDS011;34713;50.038;20.000;2023-08-12T07:02:53;3.30;;;1.90;;
48897;SDS011;34713;50.038;20.000;2023-08-12T07:05:23;2.90;;;2.10;;
48897;SDS011;34713;50.038;20.000;2023-08-12T07:07:50;2.80;;;2.00;;
48897;SDS011;34713;50.038;20.000;2023-08-12T07:10:17;3.50;;;1.90;;
48897;SDS011;34713;50.038;20.000;2023-08-12T07:12:43;3.00;;;1.80;;
48897;SDS011;34713;50.038;20.000;2023-08-12T07:15:10;5.70;;;1.90;;
48897;SDS011;34713;50.038;20.000;2023-08-12T07:17:37;2.60;;;1.90;;
48897;SDS011;34713;50.038;20.000;2023-08-12T07:20:04;2.90;;;1.90;;
48897;SDS011;34713;50.038;20.000;2023-08-12T07:22:32;2.70;;;1.90;;
48897;SDS011;34713;50.038;20.000;2023-08-12T07:24:58;2.60;;;2.30;;
48897;SDS011;34713;50.038;20.000;2023-08-12T07:27:26;3.50;;;2.30;;
48897;SDS011;34713;50.038;20.000;2023-08-12T07:29:53;4.40;;;1.70;;
48897;SDS011;34713;50.038;20.000;2023-08-12T07:32:20;3.00;;;2.00;;
48897;SDS011;34713;50.038;20.000;2023-08-12T07:34:47;3.30;;;1.80;;
48897;SDS011;34713;50.038;20.000;2023-08-12T07:37:16;2.90;;;1.90;;
48897;SDS011;34713;50.038;20.000;2023-08-12T07:39:43;3.00;;;1.90;;
48897;SDS011;34713;50.038;20.000;2023-08-12T07:42:10;4.30;;;1.80;;
48897;SDS011;34713;50.038;20.000;2023-08-12T07:44:36;4.60;;;1.90;;
48897;SDS011;34713;50.038;20.000;2023-08-12T07:47:03;4.70;;;1.70;;
48897;SDS011;34713;50.038;20.000;2023-08-12T07:49:30;5.20;;;2.40;;
48897;SDS011;34713;50.038;20.000;2023-08-12T07:51:57;4.70;;;2.00;;
48897;SDS011;34713;50.038;20.000;2023-08-12T07:54:23;5.90;;;2.20;;
48897;SDS011;34713;50.038;20.000;2023-08-12T07:56:50;3.50;;;1.80;;
48897;SDS011;34713;50.038;20.000;2023-08-12T07:59:17;3.70;;;2.20;;
48897;SDS011;34713;50.038;20.000;2023-08-12T08:01:52;5.10;;;2.30;;
48897;SDS011;34713;50.038;20.000;2023-08-12T08:04:19;3.70;;;2.20;;
48897;SDS011;34713;50.038;20.000;2023-08-12T08:06:46;3.10;;;2.50;;
48897;SDS011;34713;50.038;20.000;2023-08-12T08:09:12;4.40;;;2.30;;
48897;SDS011;34713;50.038;20.000;2023-08-12T08:11:39;4.30;;;2.40;;
48897;SDS011;34713;50.038;20.000;2023-08-12T08:14:06;4.80;;;3.10;;
48897;SDS011;34713;50.038;20.000;2023-08-12T08:16:33;4.90;;;2.80;;
48897;SDS011;34713;50.038;20.000;2023-08-12T08:19:06;4.30;;;2.70;;
48897;SDS011;34713;50.038;20.000;2023-08-12T08:24:47;5.00;;;2.60;;
48897;SDS011;34713;50.038;20.000;2023-08-12T08:27:19;3.70;;;2.30;;
48897;SDS011;34713;50.038;20.000;2023-08-12T08:29:45;6.20;;;2.70;;
48897;SDS011;34713;50.038;20.000;2023-08-12T08:32:15;5.50;;;2.90;;
48897;SDS011;34713;50.038;20.000;2023-08-12T08:34:43;4.90;;;2.90;;
48897;SDS011;34713;50.038;20.000;2023-08-12T08:37:09;7.00;;;2.80;;
48897;SDS011;34713;50.038;20.000;2023-08-12T08:39:36;5.40;;;2.90;;
48897;SDS011;34713;50.038;20.000;2023-08-12T08:42:04;4.30;;;2.80;;
48897;SDS011;34713;50.038;20.000;2023-08-12T08:44:34;5.40;;;3.20;;
48897;SDS011;34713;50.038;20.000;2023-08-12T08:47:02;4.60;;;3.00;;
48897;SDS011;34713;50.038;20.000;2023-08-12T08:49:30;8.00;;;3.10;;
48897;SDS011;34713;50.038;20.000;2023-08-12T08:51:58;5.20;;;3.10;;
48897;SDS011;34713;50.038;20.000;2023-08-12T08:54:25;6.70;;;2.80;;
48897;SDS011;34713;50.038;20.000;2023-08-12T08:56:52;4.30;;;2.60;;
48897;SDS011;34713;50.038;20.000;2023-08-12T08:59:20;4.70;;;2.80;;
48897;SDS011;34713;50.038;20.000;2023-08-12T09:01:48;3.90;;;2.40;;
48897;SDS011;34713;50.038;20.000;2023-08-12T09:04:17;3.30;;;2.10;;
48897;SDS011;34713;50.038;20.000;2023-08-12T09:06:45;4.80;;;2.20;;
48897;SDS011;34713;50.038;20.000;2023-08-12T09:09:12;3.70;;;2.20;;
48897;SDS011;34713;50.038;20.000;2023-08-12T09:11:40;5.30;;;2.00;;
48897;SDS011;34713;50.038;20.000;2023-08-12T09:14:07;6.00;;;2.50;;
48897;SDS011;34713;50.038;20.000;2023-08-12T09:16:35;5.80;;;2.40;;
48897;SDS011;34713;50.038;20.000;2023-08-12T09:19:04;4.60;;;2.20;;
48897;SDS011;34713;50.038;20.000;2023-08-12T09:21:31;7.90;;;2.30;;
48897;SDS011;34713;50.038;20.000;2023-08-12T09:24:03;5.00;;;2.10;;
48897;SDS011;34713;50.038;20.000;2023-08-12T09:26:31;3.80;;;1.80;;
48897;SDS011;34713;50.038;20.000;2023-08-12T09:28:58;5.40;;;1.90;;
48897;SDS011;34713;50.038;20.000;2023-08-12T09:31:29;3.00;;;1.60;;
48897;SDS011;34713;50.038;20.000;2023-08-12T09:34:00;2.80;;;1.80;;
48897;SDS011;34713;50.038;20.000;2023-08-12T09:36:30;2.80;;;1.70;;
48897;SDS011;34713;50.038;20.000;2023-08-12T09:38:57;4.10;;;2.10;;
48897;SDS011;34713;50.038;20.000;2023-08-12T09:41:25;3.20;;;1.90;;
48897;SDS011;34713;50.038;20.000;2023-08-12T09:43:54;5.30;;;2.10;;
48897;SDS011;34713;50.038;20.000;2023-08-12T09:46:24;9.60;;;2.70;;
48897;SDS011;34713;50.038;20.000;2023-08-12T09:48:51;4.20;;;2.10;;
48897;SDS011;34713;50.038;20.000;2023-08-12T09:51:19;6.70;;;1.80;;
48897;SDS011;34713;50.038;20.000;2023-08-12T09:53:48;5.80;;;2.80;;
48897;SDS011;34713;50.038;20.000;2023-08-12T09:56:18;8.50;;;2.20;;
48897;SDS011;34713;50.038;20.000;2023-08-12T09:59:08;3.70;;;1.60;;
48897;SDS011;34713;50.038;20.000;2023-08-12T10:01:38;3.60;;;2.10;;
48897;SDS011;34713;50.038;20.000;2023-08-12T10:04:09;7.60;;;1.80;;
48897;SDS011;34713;50.038;20.000;2023-08-12T10:06:44;4.30;;;1.80;;
48897;SDS011;34713;50.038;20.000;2023-08-12T10:09:14;6.60;;;1.90;;
48897;SDS011;34713;50.038;20.000;2023-08-12T10:11:42;2.80;;;1.90;;
48897;SDS011;34713;50.038;20.000;2023-08-12T10:14:12;6.20;;;2.60;;
48897;SDS011;34713;50.038;20.000;2023-08-12T10:16:39;3.50;;;2.00;;
48897;SDS011;34713;50.038;20.000;2023-08-12T10:19:10;7.50;;;2.80;;
48897;SDS011;34713;50.038;20.000;2023-08-12T10:21:37;6.80;;;2.40;;
48897;SDS011;34713;50.038;20.000;2023-08-12T10:24:05;5.40;;;2.50;;
48897;SDS011;34713;50.038;20.000;2023-08-12T10:26:32;6.50;;;2.50;;
48897;SDS011;34713;50.038;20.000;2023-08-12T10:28:59;5.80;;;2.10;;
48897;SDS011;34713;50.038;20.000;2023-08-12T10:31:26;4.30;;;1.90;;
48897;SDS011;34713;50.038;20.000;2023-08-12T10:33:57;3.10;;;1.90;;
48897;SDS011;34713;50.038;20.000;2023-08-12T10:36:25;5.10;;;1.80;;
48897;SDS011;34713;50.038;20.000;2023-08-12T10:38:53;3.40;;;2.10;;
48897;SDS011;34713;50.038;20.000;2023-08-12T10:41:20;3.60;;;2.00;;
48897;SDS011;34713;50.038;20.000;2023-08-12T10:43:55;3.90;;;2.20;;
48897;SDS011;34713;50.038;20.000;2023-08-12T10:49:05;3.30;;;1.80;;
48897;SDS011;34713;50.038;20.000;2023-08-12T11:02:13;3.20;;;1.90;;
48897;SDS011;34713;50.038;20.000;2023-08-12T11:05:00;4.10;;;2.00;;
48897;SDS011;34713;50.038;20.000;2023-08-12T11:07:41;3.10;;;1.90;;
48897;SDS011;34713;50.038;20.000;2023-08-12T11:10:19;2.90;;;2.20;;
48897;SDS011;34713;50.038;20.000;2023-08-12T11:15:19;2.60;;;1.80;;
48897;SDS011;34713;50.038;20.000;2023-08-12T11:17:56;3.00;;;1.80;;
48897;SDS011;34713;50.038;20.000;2023-08-12T11:20:22;2.50;;;1.80;;
48897;SDS011;34713;50.038;20.000;2023-08-12T11:22:50;4.30;;;1.70;;
48897;SDS011;34713;50.038;20.000;2023-08-12T11:25:21;3.70;;;1.40;;
48897;SDS011;34713;50.038;20.000;2023-08-12T11:27:47;2.80;;;1.80;;
48897;SDS011;34713;50.038;20.000;2023-08-12T11:30:23;3.30;;;1.80;;
48897;SDS011;34713;50.038;20.000;2023-08-12T11:32:51;3.40;;;1.70;;
48897;SDS011;34713;50.038;20.000;2023-08-12T11:35:19;3.20;;;2.00;;
48897;SDS011;34713;50.038;20.000;2023-08-12T11:37:47;3.80;;;1.90;;
48897;SDS011;34713;50.038;20.000;2023-08-12T11:40:15;5.50;;;1.80;;
48897;SDS011;34713;50.038;20.000;2023-08-12T11:42:43;2.40;;;1.30;;
48897;SDS011;34713;50.038;20.000;2023-08-12T11:45:17;3.70;;;2.00;;
48897;SDS011;34713;50.038;20.000;2023-08-12T11:47:49;2.90;;;1.70;;
48897;SDS011;34713;50.038;20.000;2023-08-12T11:50:20;2.40;;;1.60;;
48897;SDS011;34713;50.038;20.000;2023-08-12T11:52:48;3.80;;;1.80;;
48897;SDS011;34713;50.038;20.000;2023-08-12T11:55:18;4.60;;;1.70;;
48897;SDS011;34713;50.038;20.000;2023-08-12T11:57:46;3.20;;;1.70;;
48897;SDS011;34713;50.038;20.000;2023-08-12T12:00:13;3.00;;;1.80;;
48897;SDS011;34713;50.038;20.000;2023-08-12T12:02:41;2.50;;;1.50;;
48897;SDS011;34713;50.038;20.000;2023-08-12T12:05:28;3.70;;;1.80;;
48897;SDS011;34713;50.038;20.000;2023-08-12T12:08:22;3.10;;;1.50;;
48897;SDS011;34713;50.038;20.000;2023-08-12T12:11:13;3.00;;;1.70;;
48897;SDS011;34713;50.038;20.000;2023-08-12T12:13:45;2.10;;;1.40;;
48897;SDS011;34713;50.038;20.000;2023-08-12T12:16:13;2.10;;;1.30;;
48897;SDS011;34713;50.038;20.000;2023-08-12T12:18:41;2.80;;;1.60;;
48897;SDS011;34713;50.038;20.000;2023-08-12T12:21:12;6.40;;;2.00;;
48897;SDS011;34713;50.038;20.000;2023-08-12T12:23:50;2.30;;;1.90;;
48897;SDS011;34713;50.038;20.000;2023-08-12T12:26:18;2.90;;;2.10;;
48897;SDS011;34713;50.038;20.000;2023-08-12T12:32:33;3.00;;;1.60;;
48897;SDS011;34713;50.038;20.000;2023-08-12T12:34:59;5.40;;;1.60;;
48897;SDS011;34713;50.038;20.000;2023-08-12T12:40:53;2.60;;;1.30;;
48897;SDS011;34713;50.038;20.000;2023-08-12T12:44:00;2.90;;;1.50;;
48897;SDS011;34713;50.038;20.000;2023-08-12T12:49:59;4.20;;;1.30;;
48897;SDS011;34713;50.038;20.000;2023-08-12T12:52:29;5.40;;;1.50;;
48897;SDS011;34713;50.038;20.000;2023-08-12T12:54:58;2.90;;;1.90;;
48897;SDS011;34713;50.038;20.000;2023-08-12T12:58:05;2.60;;;1.60;;
48897;SDS011;34713;50.038;20.000;2023-08-12T13:04:04;1.90;;;1.40;;
48897;SDS011;34713;50.038;20.000;2023-08-12T13:18:50;4.50;;;1.30;;
48897;SDS011;34713;50.038;20.000;2023-08-12T13:21:42;3.20;;;1.60;;
48897;SDS011;34713;50.038;20.000;2023-08-12T13:24:09;3.30;;;1.40;;
48897;SDS011;34713;50.038;20.000;2023-08-12T13:26:49;1.60;;;1.30;;
48897;SDS011;34713;50.038;20.000;2023-08-12T13:29:20;2.30;;;1.60;;
48897;SDS011;34713;50.038;20.000;2023-08-12T13:31:53;6.20;;;1.90;;
48897;SDS011;34713;50.038;20.000;2023-08-12T13:34:22;5.80;;;1.50;;
48897;SDS011;34713;50.038;20.000;2023-08-12T13:36:49;3.60;;;1.70;;
48897;SDS011;34713;50.038;20.000;2023-08-12T13:39:24;6.50;;;1.70;;
48897;SDS011;34713;50.038;20.000;2023-08-12T13:42:02;1.90;;;1.50;;
48897;SDS011;34713;50.038;20.000;2023-08-12T13:44:32;2.10;;;1.50;;
48897;SDS011;34713;50.038;20.000;2023-08-12T13:46:58;3.90;;;1.70;;
48897;SDS011;34713;50.038;20.000;2023-08-12T13:49:31;4.10;;;1.80;;
48897;SDS011;34713;50.038;20.000;2023-08-12T13:51:57;4.00;;;1.70;;
48897;SDS011;34713;50.038;20.000;2023-08-12T13:54:25;2.10;;;1.30;;
48897;SDS011;34713;50.038;20.000;2023-08-12T13:56:54;2.40;;;1.40;;
48897;SDS011;34713;50.038;20.000;2023-08-12T13:59:25;3.20;;;1.90;;
48897;SDS011;34713;50.038;20.000;2023-08-12T14:02:01;2.20;;;1.40;;
48897;SDS011;34713;50.038;20.000;2023-08-12T14:04:30;2.30;;;1.30;;
48897;SDS011;34713;50.038;20.000;2023-08-12T14:06:57;2.30;;;1.60;;
48897;SDS011;34713;50.038;20.000;2023-08-12T14:09:24;4.50;;;1.60;;
48897;SDS011;34713;50.038;20.000;2023-08-12T14:11:50;4.00;;;1.60;;
48897;SDS011;34713;50.038;20.000;2023-08-12T14:14:17;4.00;;;2.40;;
48897;SDS011;34713;50.038;20.000;2023-08-12T14:16:53;2.20;;;1.60;;
48897;SDS011;34713;50.038;20.000;2023-08-12T14:19:20;3.50;;;1.50;;
48897;SDS011;34713;50.038;20.000;2023-08-12T14:21:47;4.30;;;2.00;;
48897;SDS011;34713;50.038;20.000;2023-08-12T14:24:38;3.00;;;1.30;;
48897;SDS011;34713;50.038;20.000;2023-08-12T14:27:03;4.50;;;1.60;;
48897;SDS011;34713;50.038;20.000;2023-08-12T14:29:46;3.10;;;1.50;;
48897;SDS011;34713;50.038;20.000;2023-08-12T14:32:24;2.30;;;1.40;;
48897;SDS011;34713;50.038;20.000;2023-08-12T14:38:23;1.90;;;1.20;;
48897;SDS011;34713;50.038;20.000;2023-08-12T14:40:50;6.50;;;1.70;;
48897;SDS011;34713;50.038;20.000;2023-08-12T14:43:36;3.90;;;1.50;;
48897;SDS011;34713;50.038;20.000;2023-08-12T14:46:03;3.10;;;1.40;;
48897;SDS011;34713;50.038;20.000;2023-08-12T14:48:33;2.70;;;1.70;;
48897;SDS011;34713;50.038;20.000;2023-08-12T14:51:03;2.80;;;1.40;;
48897;SDS011;34713;50.038;20.000;2023-08-12T14:53:33;3.40;;;1.40;;
48897;SDS011;34713;50.038;20.000;2023-08-12T14:56:05;2.30;;;1.50;;
48897;SDS011;34713;50.038;20.000;2023-08-12T14:58:40;2.60;;;1.50;;
48897;SDS011;34713;50.038;20.000;2023-08-12T15:01:18;3.00;;;1.90;;
48897;SDS011;34713;50.038;20.000;2023-08-12T15:03:59;3.00;;;1.70;;
48897;SDS011;34713;50.038;20.000;2023-08-12T15:06:48;2.40;;;1.50;;
48897;SDS011;34713;50.038;20.000;2023-08-12T15:09:14;1.80;;;1.40;;
48897;SDS011;34713;50.038;20.000;2023-08-12T15:11:41;3.40;;;1.50;;
48897;SDS011;34713;50.038;20.000;2023-08-12T15:14:14;2.70;;;1.40;;
48897;SDS011;34713;50.038;20.000;2023-08-12T15:16:44;3.20;;;1.60;;
48897;SDS011;34713;50.038;20.000;2023-08-12T15:19:13;1.70;;;1.50;;
48897;SDS011;34713;50.038;20.000;2023-08-12T15:22:01;3.70;;;1.40;;
48897;SDS011;34713;50.038;20.000;2023-08-12T15:27:40;4.70;;;1.90;;
48897;SDS011;34713;50.038;20.000;2023-08-12T15:30:13;2.90;;;1.50;;
48897;SDS011;34713;50.038;20.000;2023-08-12T15:33:21;2.50;;;1.60;;
48897;SDS011;34713;50.038;20.000;2023-08-12T15:35:47;2.00;;;1.50;;
48897;SDS011;34713;50.038;20.000;2023-08-12T15:38:33;4.50;;;1.60;;
48897;SDS011;34713;50.038;20.000;2023-08-12T15:41:13;4.60;;;1.80;;
48897;SDS011;34713;50.038;20.000;2023-08-12T15:43:41;2.20;;;1.60;;